sensor_id;sensor_type;location;lat;lon;timestamp;pressure;altitude;pressure_sealevel;temperature;humidity
10688;BME280;5392;42.688;23.298;2023-04-15T00:01:01;57334.09;;;-144.48;100.00
10688;BME280;5392;42.688;23.298;2023-04-15T00:03:28;57338.28;;;-144.48;100.00
10688;BME280;5392;42.688;23.298;2023-04-15T00:05:56;57329.94;;;-144.48;100.00
10688;BME280;5392;42.688;23.298;2023-04-15T00:08:24;57375.84;;;-144.48;100.00
10688;BME280;5392;42.688;23.298;2023-04-15T00:10:51;57332.03;;;-144.48;100.00
10688;BME280;5392;42.688;23.298;2023-04-15T00:13:18;57340.38;;;-144.48;100.00
10688;BME280;5392;42.688;23.298;2023-04-15T00:15:45;57346.63;;;-144.48;100.00
10688;BME280;5392;42.688;23.298;2023-04-15T00:18:12;57292.38;;;-144.48;100.00
10688;BME280;5392;42.688;23.298;2023-04-15T00:20:40;57342.47;;;-144.48;100.00
10688;BME280;5392;42.688;23.298;2023-04-15T00:23:06;57306.97;;;-144.48;100.00
10688;BME280;5392;42.688;23.298;2023-04-15T00:25:33;57344.53;;;-144.48;100.00
10688;BME280;5392;42.688;23.298;2023-04-15T00:28:00;57377.94;;;-144.48;100.00
10688;BME280;5392;42.688;23.298;2023-04-15T00:30:27;57344.53;;;-144.48;100.00
10688;BME280;5392;42.688;23.298;2023-04-15T00:32:53;57311.16;;;-144.48;100.00
10688;BME280;5392;42.688;23.298;2023-04-15T00:35:20;57317.41;;;-144.48;100.00
10688;BME280;5392;42.688;23.298;2023-04-15T00:37:47;57340.38;;;-144.48;100.00
10688;BME280;5392;42.688;23.298;2023-04-15T00:40:16;57302.81;;;-144.48;100.00
10688;BME280;5392;42.688;23.298;2023-04-15T00:42:44;57352.91;;;-144.48;100.00
10688;BME280;5392;42.688;23.298;2023-04-15T00:45:11;57363.31;;;-144.48;100.00
10688;BME280;5392;42.688;23.298;2023-04-15T00:47:40;57329.94;;;-144.48;100.00
10688;BME280;5392;42.688;23.298;2023-04-15T00:50:09;57323.66;;;-144.48;100.00
10688;BME280;5392;42.688;23.298;2023-04-15T00:52:36;57338.28;;;-144.48;100.00
10688;BME280;5392;42.688;23.298;2023-04-15T00:55:03;57309.06;;;-144.48;100.00
10688;BME280;5392;42.688;23.298;2023-04-15T00:57:31;57321.59;;;-144.48;100.00
10688;BME280;5392;42.688;23.298;2023-04-15T00:59:57;57325.75;;;-144.48;100.00
10688;BME280;5392;42.688;23.298;2023-04-15T01:02:25;57334.09;;;-144.48;100.00
10688;BME280;5392;42.688;23.298;2023-04-15T01:04:53;57352.91;;;-144.48;100.00
10688;BME280;5392;42.688;23.298;2023-04-15T01:07:20;57346.63;;;-144.48;100.00
10688;BME280;5392;42.688;23.298;2023-04-15T01:09:46;57321.59;;;-144.48;100.00
10688;BME280;5392;42.688;23.298;2023-04-15T01:12:14;57338.28;;;-144.48;100.00
10688;BME280;5392;42.688;23.298;2023-04-15T01:14:42;57344.53;;;-144.48;100.00
10688;BME280;5392;42.688;23.298;2023-04-15T01:17:09;57309.06;;;-144.48;100.00
10688;BME280;5392;42.688;23.298;2023-04-15T01:19:36;57332.03;;;-144.48;100.00
10688;BME280;5392;42.688;23.298;2023-04-15T01:22:03;57367.50;;;-144.48;100.00
10688;BME280;5392;42.688;23.298;2023-04-15T01:24:31;57325.75;;;-144.48;100.00
10688;BME280;5392;42.688;23.298;2023-04-15T01:26:59;57350.81;;;-144.48;100.00
10688;BME280;5392;42.688;23.298;2023-04-15T01:29:26;57348.72;;;-144.48;100.00
10688;BME280;5392;42.688;23.298;2023-04-15T01:31:54;57325.75;;;-144.48;100.00
10688;BME280;5392;42.688;23.298;2023-04-15T01:34:22;57321.59;;;-144.48;100.00
10688;BME280;5392;42.688;23.298;2023-04-15T01:36:49;57321.59;;;-144.48;100.00
10688;BME280;5392;42.688;23.298;2023-04-15T01:39:15;57317.41;;;-144.48;100.00
10688;BME280;5392;42.688;23.298;2023-04-15T01:41:42;57327.84;;;-144.48;100.00
10688;BME280;5392;42.688;23.298;2023-04-15T01:44:09;57365.41;;;-144.48;100.00
10688;BME280;5392;42.688;23.298;2023-04-15T01:46:36;57371.69;;;-144.48;100.00
10688;BME280;5392;42.688;23.298;2023-04-15T01:49:03;57286.09;;;-144.48;100.00
10688;BME280;5392;42.688;23.298;2023-04-15T01:51:30;57375.84;;;-144.48;100.00
10688;BME280;5392;42.688;23.298;2023-04-15T01:53:57;57338.28;;;-144.48;100.00
10688;BME280;5392;42.688;23.298;2023-04-15T01:56:24;57302.81;;;-144.48;100.00
10688;BME280;5392;42.688;23.298;2023-04-15T01:58:51;57306.97;;;-144.48;100.00
10688;BME280;5392;42.688;23.298;2023-04-15T02:01:18;57323.66;;;-144.48;100.00
10688;BME280;5392;42.688;23.298;2023-04-15T02:03:45;57332.03;;;-144.48;100.00
10688;BME280;5392;42.688;23.298;2023-04-15T02:06:13;57329.94;;;-144.48;100.00
10688;BME280;5392;42.688;23.298;2023-04-15T02:08:40;57327.84;;;-144.48;100.00
10688;BME280;5392;42.688;23.298;2023-04-15T02:11:06;57348.72;;;-144.48;100.00
10688;BME280;5392;42.688;23.298;2023-04-15T02:13:33;57327.84;;;-144.48;100.00
10688;BME280;5392;42.688;23.298;2023-04-15T02:16:00;57332.03;;;-144.48;100.00
10688;BME280;5392;42.688;23.298;2023-04-15T02:18:27;57304.88;;;-144.48;100.00
10688;BME280;5392;42.688;23.298;2023-04-15T02:20:54;57321.59;;;-144.48;100.00
10688;BME280;5392;42.688;23.298;2023-04-15T02:23:23;57325.75;;;-144.48;100.00
10688;BME280;5392;42.688;23.298;2023-04-15T02:25:49;57313.22;;;-144.48;100.00
10688;BME280;5392;42.688;23.298;2023-04-15T02:28:20;57317.41;;;-144.48;100.00
10688;BME280;5392;42.688;23.298;2023-04-15T02:30:50;57302.81;;;-144.48;100.00
10688;BME280;5392;42.688;23.298;2023-04-15T02:33:19;57338.28;;;-144.48;100.00
10688;BME280;5392;42.688;23.298;2023-04-15T02:35:47;57329.94;;;-144.48;100.00
10688;BME280;5392;42.688;23.298;2023-04-15T02:38:13;57302.81;;;-144.48;100.00
10688;BME280;5392;42.688;23.298;2023-04-15T02:40:42;57336.19;;;-144.48;100.00
10688;BME280;5392;42.688;23.298;2023-04-15T02:43:09;57350.81;;;-144.48;100.00
10688;BME280;5392;42.688;23.298;2023-04-15T02:45:36;57338.28;;;-144.48;100.00
10688;BME280;5392;42.688;23.298;2023-04-15T02:48:02;57336.19;;;-144.48;100.00
10688;BME280;5392;42.688;23.298;2023-04-15T02:50:32;57336.19;;;-144.48;100.00
10688;BME280;5392;42.688;23.298;2023-04-15T02:52:59;57342.47;;;-144.48;100.00
10688;BME280;5392;42.688;23.298;2023-04-15T02:55:27;57290.28;;;-144.48;100.00
10688;BME280;5392;42.688;23.298;2023-04-15T02:57:54;57317.41;;;-144.48;100.00
10688;BME280;5392;42.688;23.298;2023-04-15T03:00:21;57334.09;;;-144.48;100.00
10688;BME280;5392;42.688;23.298;2023-04-15T03:02:51;57350.81;;;-144.48;100.00
10688;BME280;5392;42.688;23.298;2023-04-15T03:05:22;57321.59;;;-144.48;100.00
10688;BME280;5392;42.688;23.298;2023-04-15T03:07:51;57329.94;;;-144.48;100.00
10688;BME280;5392;42.688;23.298;2023-04-15T03:10:17;57298.63;;;-144.48;100.00
10688;BME280;5392;42.688;23.298;2023-04-15T03:12:44;57363.31;;;-144.48;100.00
10688;BME280;5392;42.688;23.298;2023-04-15T03:15:11;57365.41;;;-144.48;100.00
10688;BME280;5392;42.688;23.298;2023-04-15T03:17:38;57317.41;;;-144.48;100.00
10688;BME280;5392;42.688;23.298;2023-04-15T03:20:05;57342.47;;;-144.48;100.00
10688;BME280;5392;42.688;23.298;2023-04-15T03:22:32;57317.41;;;-144.48;100.00
10688;BME280;5392;42.688;23.298;2023-04-15T03:24:59;57332.03;;;-144.48;100.00
10688;BME280;5392;42.688;23.298;2023-04-15T03:27:26;57300.72;;;-144.48;100.00
10688;BME280;5392;42.688;23.298;2023-04-15T03:29:52;57292.38;;;-144.48;100.00
10688;BME280;5392;42.688;23.298;2023-04-15T03:32:19;57294.44;;;-144.48;100.00
10688;BME280;5392;42.688;23.298;2023-04-15T03:34:46;57344.53;;;-144.48;100.00
10688;BME280;5392;42.688;23.298;2023-04-15T03:37:13;57321.59;;;-144.48;100.00
10688;BME280;5392;42.688;23.298;2023-04-15T03:39:39;57317.41;;;-144.48;100.00
10688;BME280;5392;42.688;23.298;2023-04-15T03:42:07;57348.72;;;-144.48;100.00
10688;BME280;5392;42.688;23.298;2023-04-15T03:44:33;57342.47;;;-144.48;100.00
10688;BME280;5392;42.688;23.298;2023-04-15T03:47:00;57357.06;;;-144.48;100.00
10688;BME280;5392;42.688;23.298;2023-04-15T03:49:27;57342.47;;;-144.48;100.00
10688;BME280;5392;42.688;23.298;2023-04-15T03:51:54;57348.72;;;-144.48;100.00
10688;BME280;5392;42.688;23.298;2023-04-15T03:54:21;57315.31;;;-144.48;100.00
10688;BME280;5392;42.688;23.298;2023-04-15T03:56:47;57388.38;;;-144.48;100.00
10688;BME280;5392;42.688;23.298;2023-04-15T03:59:14;57332.03;;;-144.48;100.00
10688;BME280;5392;42.688;23.298;2023-04-15T04:01:41;57327.84;;;-144.48;100.00
10688;BME280;5392;42.688;23.298;2023-04-15T04:04:08;57321.59;;;-144.48;100.00
10688;BME280;5392;42.688;23.298;2023-04-15T04:06:34;57327.84;;;-144.48;100.00
10688;BME280;5392;42.688;23.298;2023-04-15T04:09:01;57342.47;;;-144.48;100.00
10688;BME280;5392;42.688;23.298;2023-04-15T04:11:28;57313.22;;;-144.48;100.00
10688;BME280;5392;42.688;23.298;2023-04-15T04:13:55;57325.75;;;-144.48;100.00
10688;BME280;5392;42.688;23.298;2023-04-15T04:16:22;57327.84;;;-144.48;100.00
10688;BME280;5392;42.688;23.298;2023-04-15T04:18:48;57329.94;;;-144.48;100.00
10688;BME280;5392;42.688;23.298;2023-04-15T04:21:16;57300.72;;;-144.48;100.00
10688;BME280;5392;42.688;23.298;2023-04-15T04:23:42;57319.50;;;-144.48;95.66
10688;BME280;5392;42.688;23.298;2023-04-15T04:26:09;57327.84;;;-144.48;87.58
10688;BME280;5392;42.688;23.298;2023-04-15T04:28:36;57319.50;;;-144.48;83.68
10688;BME280;5392;42.688;23.298;2023-04-15T04:31:07;57296.53;;;-144.48;79.10
10688;BME280;5392;42.688;23.298;2023-04-15T04:33:34;57338.28;;;-144.48;72.78
10688;BME280;5392;42.688;23.298;2023-04-15T04:36:01;57332.03;;;-144.48;64.86
10688;BME280;5392;42.688;23.298;2023-04-15T04:38:28;57306.97;;;-144.48;61.87
10688;BME280;5392;42.688;23.298;2023-04-15T04:40:54;57290.28;;;-144.48;60.60
10688;BME280;5392;42.688;23.298;2023-04-15T04:43:21;57321.59;;;-144.48;60.98
10688;BME280;5392;42.688;23.298;2023-04-15T04:45:48;57288.19;;;-144.48;61.52
10688;BME280;5392;42.688;23.298;2023-04-15T04:48:15;57311.16;;;-144.48;60.36
10688;BME280;5392;42.688;23.298;2023-04-15T04:50:43;57277.75;;;-144.48;58.37
10688;BME280;5392;42.688;23.298;2023-04-15T04:53:10;57340.38;;;-144.48;57.47
10688;BME280;5392;42.688;23.298;2023-04-15T04:55:37;57284.00;;;-144.48;57.46
10688;BME280;5392;42.688;23.298;2023-04-15T04:58:04;57267.31;;;-144.48;55.92
10688;BME280;5392;42.688;23.298;2023-04-15T05:00:30;57281.94;;;-144.48;56.38
10688;BME280;5392;42.688;23.298;2023-04-15T05:02:57;57273.56;;;-144.48;57.47
10688;BME280;5392;42.688;23.298;2023-04-15T05:05:24;57250.63;;;-144.48;56.50
10688;BME280;5392;42.688;23.298;2023-04-15T05:07:51;57321.59;;;-144.48;57.85
10688;BME280;5392;42.688;23.298;2023-04-15T05:10:18;57236.00;;;-144.48;56.96
10688;BME280;5392;42.688;23.298;2023-04-15T05:12:45;57321.59;;;-144.48;55.91
10688;BME280;5392;42.688;23.298;2023-04-15T05:15:12;57256.88;;;-144.48;54.93
10688;BME280;5392;42.688;23.298;2023-04-15T05:17:38;57327.84;;;-144.48;54.39
10688;BME280;5392;42.688;23.298;2023-04-15T05:20:05;57292.38;;;-144.48;55.29
10688;BME280;5392;42.688;23.298;2023-04-15T05:22:33;57279.84;;;-144.48;55.37
10688;BME280;5392;42.688;23.298;2023-04-15T05:25:00;57269.41;;;-144.48;56.37
10688;BME280;5392;42.688;23.298;2023-04-15T05:27:27;57273.56;;;-144.48;56.93
10688;BME280;5392;42.688;23.298;2023-04-15T05:29:53;57306.97;;;-144.48;57.19
10688;BME280;5392;42.688;23.298;2023-04-15T05:32:20;57269.41;;;-144.48;57.31
10688;BME280;5392;42.688;23.298;2023-04-15T05:34:47;57263.16;;;-144.48;58.07
10688;BME280;5392;42.688;23.298;2023-04-15T05:37:14;57302.81;;;-144.48;56.86
10688;BME280;5392;42.688;23.298;2023-04-15T05:39:41;57302.81;;;-144.48;57.08
10688;BME280;5392;42.688;23.298;2023-04-15T05:42:08;57306.97;;;-144.48;55.70
10688;BME280;5392;42.688;23.298;2023-04-15T05:44:35;57292.38;;;-144.48;56.49
10688;BME280;5392;42.688;23.298;2023-04-15T05:47:02;57319.50;;;-144.48;57.18
10688;BME280;5392;42.688;23.298;2023-04-15T05:49:29;57319.50;;;-144.48;57.47
10688;BME280;5392;42.688;23.298;2023-04-15T05:51:56;57296.53;;;-144.48;57.28
10688;BME280;5392;42.688;23.298;2023-04-15T05:54:22;57306.97;;;-144.48;57.39
10688;BME280;5392;42.688;23.298;2023-04-15T05:56:49;57231.84;;;-144.48;56.89
10688;BME280;5392;42.688;23.298;2023-04-15T05:59:16;57296.53;;;-144.48;55.63
10688;BME280;5392;42.688;23.298;2023-04-15T06:01:42;57273.56;;;-144.48;55.15
10688;BME280;5392;42.688;23.298;2023-04-15T06:04:09;57273.56;;;-144.48;55.14
10688;BME280;5392;42.688;23.298;2023-04-15T06:06:37;57300.72;;;-144.48;54.61
10688;BME280;5392;42.688;23.298;2023-04-15T06:09:04;57296.53;;;-144.48;54.09
10688;BME280;5392;42.688;23.298;2023-04-15T06:11:30;57269.41;;;-144.48;53.75
10688;BME280;5392;42.688;23.298;2023-04-15T06:13:57;57284.00;;;-144.48;53.47
10688;BME280;5392;42.688;23.298;2023-04-15T06:16:24;57263.16;;;-144.48;53.98
10688;BME280;5392;42.688;23.298;2023-04-15T06:18:50;57290.28;;;-144.48;54.47
10688;BME280;5392;42.688;23.298;2023-04-15T06:21:17;57281.94;;;-144.48;53.61
10688;BME280;5392;42.688;23.298;2023-04-15T06:23:44;57263.16;;;-144.48;54.50
10688;BME280;5392;42.688;23.298;2023-04-15T06:26:12;57252.72;;;-144.48;55.37
10688;BME280;5392;42.688;23.298;2023-04-15T06:28:38;57325.75;;;-144.48;55.54
10688;BME280;5392;42.688;23.298;2023-04-15T06:31:06;57332.03;;;-144.48;56.00
10688;BME280;5392;42.688;23.298;2023-04-15T06:33:32;57317.41;;;-144.48;57.08
10688;BME280;5392;42.688;23.298;2023-04-15T06:35:59;57269.41;;;-144.48;56.49
10688;BME280;5392;42.688;23.298;2023-04-15T06:38:26;57284.00;;;-144.48;55.34
10688;BME280;5392;42.688;23.298;2023-04-15T06:40:53;57290.28;;;-144.48;54.66
10688;BME280;5392;42.688;23.298;2023-04-15T06:43:20;57261.06;;;-144.48;54.74
10688;BME280;5392;42.688;23.298;2023-04-15T06:45:47;57250.63;;;-144.48;54.04
10688;BME280;5392;42.688;23.298;2023-04-15T06:48:13;57315.31;;;-144.48;53.81
10688;BME280;5392;42.688;23.298;2023-04-15T06:50:40;57288.19;;;-144.48;54.20
10688;BME280;5392;42.688;23.298;2023-04-15T06:53:07;57246.44;;;-144.48;55.81
10688;BME280;5392;42.688;23.298;2023-04-15T06:55:34;57288.19;;;-144.48;56.10
10688;BME280;5392;42.688;23.298;2023-04-15T06:58:00;57323.66;;;-144.48;55.34
10688;BME280;5392;42.688;23.298;2023-04-15T07:00:27;57261.06;;;-144.48;55.64
10688;BME280;5392;42.688;23.298;2023-04-15T07:02:54;57277.75;;;-144.48;55.16
10688;BME280;5392;42.688;23.298;2023-04-15T07:05:21;57290.28;;;-144.48;54.86
10688;BME280;5392;42.688;23.298;2023-04-15T07:07:48;57313.22;;;-144.48;53.78
10688;BME280;5392;42.688;23.298;2023-04-15T07:10:14;57288.19;;;-144.48;53.91
10688;BME280;5392;42.688;23.298;2023-04-15T07:12:41;57288.19;;;-144.48;55.57
10688;BME280;5392;42.688;23.298;2023-04-15T07:15:08;57300.72;;;-144.48;56.53
10688;BME280;5392;42.688;23.298;2023-04-15T07:17:35;57294.44;;;-144.48;54.91
10688;BME280;5392;42.688;23.298;2023-04-15T07:20:02;57325.75;;;-144.48;57.38
10688;BME280;5392;42.688;23.298;2023-04-15T07:22:30;57302.81;;;-144.48;58.27
10688;BME280;5392;42.688;23.298;2023-04-15T07:24:56;57309.06;;;-144.48;57.62
10688;BME280;5392;42.688;23.298;2023-04-15T07:27:23;57325.75;;;-144.48;57.99
10688;BME280;5392;42.688;23.298;2023-04-15T07:29:50;57302.81;;;-144.48;57.99
10688;BME280;5392;42.688;23.298;2023-04-15T07:32:18;57288.19;;;-144.48;57.72
10688;BME280;5392;42.688;23.298;2023-04-15T07:34:45;57284.00;;;-144.48;55.92
10688;BME280;5392;42.688;23.298;2023-04-15T07:37:11;57281.94;;;-144.48;55.80
10688;BME280;5392;42.688;23.298;2023-04-15T07:39:39;57294.44;;;-144.48;56.47
10688;BME280;5392;42.688;23.298;2023-04-15T07:42:05;57317.41;;;-144.48;55.95
10688;BME280;5392;42.688;23.298;2023-04-15T07:44:32;57281.94;;;-144.48;55.64
10688;BME280;5392;42.688;23.298;2023-04-15T07:46:59;57292.38;;;-144.48;55.77
10688;BME280;5392;42.688;23.298;2023-04-15T07:49:26;57304.88;;;-144.48;56.83
10688;BME280;5392;42.688;23.298;2023-04-15T07:51:54;57317.41;;;-144.48;57.30
10688;BME280;5392;42.688;23.298;2023-04-15T07:54:23;57300.72;;;-144.48;56.87
10688;BME280;5392;42.688;23.298;2023-04-15T07:56:50;57292.38;;;-144.48;57.16
10688;BME280;5392;42.688;23.298;2023-04-15T07:59:16;57296.53;;;-144.48;57.57
10688;BME280;5392;42.688;23.298;2023-04-15T08:01:43;57327.84;;;-144.48;57.40
10688;BME280;5392;42.688;23.298;2023-04-15T08:04:10;57325.75;;;-144.48;58.02
10688;BME280;5392;42.688;23.298;2023-04-15T08:06:37;57344.53;;;-144.48;57.10
10688;BME280;5392;42.688;23.298;2023-04-15T08:09:05;57281.94;;;-144.48;57.32
10688;BME280;5392;42.688;23.298;2023-04-15T08:11:33;57323.66;;;-144.48;57.45
10688;BME280;5392;42.688;23.298;2023-04-15T08:14:00;57256.88;;;-144.48;56.38
10688;BME280;5392;42.688;23.298;2023-04-15T08:16:27;57302.81;;;-144.48;56.10
10688;BME280;5392;42.688;23.298;2023-04-15T08:18:55;57313.22;;;-144.48;56.32
10688;BME280;5392;42.688;23.298;2023-04-15T08:21:22;57319.50;;;-144.48;56.83
10688;BME280;5392;42.688;23.298;2023-04-15T08:23:51;57250.63;;;-144.48;56.61
10688;BME280;5392;42.688;23.298;2023-04-15T08:26:19;57317.41;;;-144.48;55.59
10688;BME280;5392;42.688;23.298;2023-04-15T08:28:46;57275.66;;;-144.48;56.58
10688;BME280;5392;42.688;23.298;2023-04-15T08:31:15;57321.59;;;-144.48;55.22
10688;BME280;5392;42.688;23.298;2023-04-15T08:33:42;57332.03;;;-144.48;54.23
10688;BME280;5392;42.688;23.298;2023-04-15T08:36:09;57290.28;;;-144.48;54.29
10688;BME280;5392;42.688;23.298;2023-04-15T08:38:36;57315.31;;;-144.48;54.10
10688;BME280;5392;42.688;23.298;2023-04-15T08:41:07;57290.28;;;-144.48;53.64
10688;BME280;5392;42.688;23.298;2023-04-15T08:43:46;57332.03;;;-144.48;52.67
10688;BME280;5392;42.688;23.298;2023-04-15T08:46:15;57323.66;;;-144.48;52.77
10688;BME280;5392;42.688;23.298;2023-04-15T08:48:43;57284.00;;;-144.48;52.75
10688;BME280;5392;42.688;23.298;2023-04-15T08:51:10;57244.34;;;-144.48;53.35
10688;BME280;5392;42.688;23.298;2023-04-15T08:53:45;57275.66;;;-144.48;53.28
10688;BME280;5392;42.688;23.298;2023-04-15T08:56:14;57298.63;;;-144.48;53.35
10688;BME280;5392;42.688;23.298;2023-04-15T08:58:45;57309.06;;;-144.48;54.40
10688;BME280;5392;42.688;23.298;2023-04-15T09:01:12;57277.75;;;-144.48;54.69
10688;BME280;5392;42.688;23.298;2023-04-15T09:03:39;57340.38;;;-144.48;55.15
10688;BME280;5392;42.688;23.298;2023-04-15T09:06:07;57338.28;;;-144.48;55.47
10688;BME280;5392;42.688;23.298;2023-04-15T09:08:34;57346.63;;;-144.48;55.92
10688;BME280;5392;42.688;23.298;2023-04-15T09:11:02;57329.94;;;-144.48;56.27
10688;BME280;5392;42.688;23.298;2023-04-15T09:13:29;57292.38;;;-144.48;56.61
10688;BME280;5392;42.688;23.298;2023-04-15T09:15:56;57296.53;;;-144.48;55.98
10688;BME280;5392;42.688;23.298;2023-04-15T09:18:33;57290.28;;;-144.48;54.82
10688;BME280;5392;42.688;23.298;2023-04-15T09:23:31;57306.97;;;-144.48;54.92
10688;BME280;5392;42.688;23.298;2023-04-15T09:25:59;57334.09;;;-144.48;54.13
10688;BME280;5392;42.688;23.298;2023-04-15T09:28:27;57290.28;;;-144.48;55.50
10688;BME280;5392;42.688;23.298;2023-04-15T09:30:55;57294.44;;;-144.48;56.07
10688;BME280;5392;42.688;23.298;2023-04-15T09:33:23;57311.16;;;-144.48;55.50
10688;BME280;5392;42.688;23.298;2023-04-15T09:35:58;57309.06;;;-144.48;55.22
10688;BME280;5392;42.688;23.298;2023-04-15T09:38:24;57292.38;;;-144.48;55.59
10688;BME280;5392;42.688;23.298;2023-04-15T09:40:51;57352.91;;;-144.48;55.65
10688;BME280;5392;42.688;23.298;2023-04-15T09:43:18;57342.47;;;-144.48;55.92
10688;BME280;5392;42.688;23.298;2023-04-15T09:45:50;57304.88;;;-144.48;56.43
10688;BME280;5392;42.688;23.298;2023-04-15T09:48:24;57317.41;;;-144.48;57.40
10688;BME280;5392;42.688;23.298;2023-04-15T09:50:57;57290.28;;;-144.48;57.37
10688;BME280;5392;42.688;23.298;2023-04-15T09:53:24;57288.19;;;-144.48;57.56
10688;BME280;5392;42.688;23.298;2023-04-15T09:55:55;57344.53;;;-144.48;57.01
10688;BME280;5392;42.688;23.298;2023-04-15T09:58:27;57321.59;;;-144.48;53.05
10688;BME280;5392;42.688;23.298;2023-04-15T10:00:56;57325.75;;;-144.48;54.89
10688;BME280;5392;42.688;23.298;2023-04-15T10:05:54;57302.81;;;-144.48;57.21
10688;BME280;5392;42.688;23.298;2023-04-15T10:08:23;57315.31;;;-144.48;56.07
10688;BME280;5392;42.688;23.298;2023-04-15T10:10:52;57300.72;;;-144.48;55.29
10688;BME280;5392;42.688;23.298;2023-04-15T10:13:21;57327.84;;;-144.48;54.97
10688;BME280;5392;42.688;23.298;2023-04-15T10:18:27;57281.94;;;-144.48;53.73
10688;BME280;5392;42.688;23.298;2023-04-15T10:20:54;57327.84;;;-144.48;52.50
10688;BME280;5392;42.688;23.298;2023-04-15T10:23:22;57311.16;;;-144.48;52.17
10688;BME280;5392;42.688;23.298;2023-04-15T10:25:51;57292.38;;;-144.48;51.81
10688;BME280;5392;42.688;23.298;2023-04-15T10:28:20;57292.38;;;-144.48;51.71
10688;BME280;5392;42.688;23.298;2023-04-15T10:30:51;57277.75;;;-144.48;51.61
10688;BME280;5392;42.688;23.298;2023-04-15T10:33:22;57298.63;;;-144.48;50.90
10688;BME280;5392;42.688;23.298;2023-04-15T10:35:50;57288.19;;;-144.48;50.68
10688;BME280;5392;42.688;23.298;2023-04-15T10:38:37;57294.44;;;-144.48;50.49
10688;BME280;5392;42.688;23.298;2023-04-15T10:41:24;57296.53;;;-144.48;50.19
10688;BME280;5392;42.688;23.298;2023-04-15T10:43:59;57286.09;;;-144.48;50.79
10688;BME280;5392;42.688;23.298;2023-04-15T10:46:43;57302.81;;;-144.48;51.78
10688;BME280;5392;42.688;23.298;2023-04-15T10:49:12;57296.53;;;-144.48;52.40
10688;BME280;5392;42.688;23.298;2023-04-15T10:51:42;57304.88;;;-144.48;52.63
10688;BME280;5392;42.688;23.298;2023-04-15T10:54:29;57263.16;;;-144.48;52.70
10688;BME280;5392;42.688;23.298;2023-04-15T10:59:30;57313.22;;;-144.48;52.57
10688;BME280;5392;42.688;23.298;2023-04-15T11:02:02;57317.41;;;-144.48;52.09
10688;BME280;5392;42.688;23.298;2023-04-15T11:05:05;57290.28;;;-144.48;50.91
10688;BME280;5392;42.688;23.298;2023-04-15T11:07:41;57246.44;;;-144.48;50.97
10688;BME280;5392;42.688;23.298;2023-04-15T11:12:44;57284.00;;;-144.48;51.05
10688;BME280;5392;42.688;23.298;2023-04-15T11:17:53;57279.84;;;-144.48;51.21
10688;BME280;5392;42.688;23.298;2023-04-15T11:20:19;57300.72;;;-144.48;51.29
10688;BME280;5392;42.688;23.298;2023-04-15T11:22:50;57273.56;;;-144.48;51.17
10688;BME280;5392;42.688;23.298;2023-04-15T11:25:38;57246.44;;;-144.48;51.22
10688;BME280;5392;42.688;23.298;2023-04-15T11:28:05;57300.72;;;-144.48;51.11
10688;BME280;5392;42.688;23.298;2023-04-15T11:30:35;57261.06;;;-144.48;50.60
10688;BME280;5392;42.688;23.298;2023-04-15T11:33:07;57273.56;;;-144.48;50.54
10688;BME280;5392;42.688;23.298;2023-04-15T11:35:34;57284.00;;;-144.48;50.91
10688;BME280;5392;42.688;23.298;2023-04-15T11:38:07;57300.72;;;-144.48;50.50
10688;BME280;5392;42.688;23.298;2023-04-15T11:40:34;57290.28;;;-144.48;49.79
10688;BME280;5392;42.688;23.298;2023-04-15T11:43:10;57304.88;;;-144.48;49.81
10688;BME280;5392;42.688;23.298;2023-04-15T11:45:43;57279.84;;;-144.48;49.71
10688;BME280;5392;42.688;23.298;2023-04-15T11:48:13;57263.16;;;-144.48;50.35
10688;BME280;5392;42.688;23.298;2023-04-15T11:50:40;57313.22;;;-144.48;50.48
10688;BME280;5392;42.688;23.298;2023-04-15T11:53:08;57258.97;;;-144.48;50.33
10688;BME280;5392;42.688;23.298;2023-04-15T11:55:42;57300.72;;;-144.48;50.41
10688;BME280;5392;42.688;23.298;2023-04-15T11:58:18;57273.56;;;-144.48;50.61
10688;BME280;5392;42.688;23.298;2023-04-15T12:00:52;57296.53;;;-144.48;51.03
10688;BME280;5392;42.688;23.298;2023-04-15T12:03:30;57315.31;;;-144.48;50.71
10688;BME280;5392;42.688;23.298;2023-04-15T12:06:20;57329.94;;;-144.48;51.03
10688;BME280;5392;42.688;23.298;2023-04-15T12:16:46;57263.16;;;-144.48;50.65
10688;BME280;5392;42.688;23.298;2023-04-15T12:19:25;57290.28;;;-144.48;50.43
10688;BME280;5392;42.688;23.298;2023-04-15T12:21:56;57275.66;;;-144.48;50.48
10688;BME280;5392;42.688;23.298;2023-04-15T12:24:26;57275.66;;;-144.48;49.98
10688;BME280;5392;42.688;23.298;2023-04-15T12:26:54;57265.22;;;-144.48;49.81
10688;BME280;5392;42.688;23.298;2023-04-15T12:29:27;57284.00;;;-144.48;49.94
10688;BME280;5392;42.688;23.298;2023-04-15T12:31:56;57313.22;;;-144.48;50.29
10688;BME280;5392;42.688;23.298;2023-04-15T12:34:36;57281.94;;;-144.48;50.65
10688;BME280;5392;42.688;23.298;2023-04-15T12:37:05;57279.84;;;-144.48;50.47
10688;BME280;5392;42.688;23.298;2023-04-15T12:39:39;57309.06;;;-144.48;50.76
10688;BME280;5392;42.688;23.298;2023-04-15T12:42:07;57286.09;;;-144.48;50.66
10688;BME280;5392;42.688;23.298;2023-04-15T12:44:35;57273.56;;;-144.48;50.56
10688;BME280;5392;42.688;23.298;2023-04-15T12:47:02;57284.00;;;-144.48;50.38
10688;BME280;5392;42.688;23.298;2023-04-15T12:49:29;57292.38;;;-144.48;50.36
10688;BME280;5392;42.688;23.298;2023-04-15T12:51:58;57311.16;;;-144.48;50.56
10688;BME280;5392;42.688;23.298;2023-04-15T12:54:27;57275.66;;;-144.48;50.64
10688;BME280;5392;42.688;23.298;2023-04-15T12:56:54;57240.19;;;-144.48;51.33
10688;BME280;5392;42.688;23.298;2023-04-15T12:59:21;57248.53;;;-144.48;50.88
10688;BME280;5392;42.688;23.298;2023-04-15T13:01:50;57275.66;;;-144.48;50.64
10688;BME280;5392;42.688;23.298;2023-04-15T13:04:19;57277.75;;;-144.48;50.88